createdAt,value
2022-12-15T02:23:04.129Z,16.33
2022-12-15T02:24:31.263Z,14.85
2022-12-15T02:25:53.584Z,16.77
2022-12-15T02:28:41.736Z,14.71
2022-12-15T02:30:11.789Z,13.74
2022-12-15T02:31:23.245Z,17.05
2022-12-15T02:32:29.035Z,16.34
2022-12-15T02:33:33.341Z,14.59
2022-12-15T02:34:57.567Z,17.01
2022-12-15T02:36:12.021Z,15.57
2022-12-15T02:37:20.321Z,15.66
2022-12-15T02:38:30.638Z,16.31
2022-12-15T02:39:32.578Z,16.87
2022-12-15T02:40:35.484Z,16.29
2022-12-15T02:41:40.503Z,15.21
2022-12-15T02:45:07.271Z,14.23
2022-12-15T02:46:19.435Z,15.93
2022-12-15T02:47:39.997Z,16.01
2022-12-15T02:49:01.506Z,16.51
2022-12-15T02:50:42.365Z,14.23
2022-12-15T02:52:02.879Z,13.39
2022-12-15T02:53:30.185Z,15.57
2022-12-15T02:54:52.948Z,14.34
2022-12-15T02:56:01.626Z,13.54
2022-12-15T02:57:10.470Z,13.01
2022-12-15T02:58:34.461Z,13.50
2022-12-15T02:59:55.226Z,13.79
2022-12-15T03:01:00.574Z,14.34
2022-12-15T03:02:06.010Z,13.90
2022-12-15T03:03:09.349Z,14.87
2022-12-15T03:04:12.737Z,15.29
2022-12-15T03:05:16.257Z,13.03
2022-12-15T03:06:19.580Z,14.31
2022-12-15T03:07:22.771Z,15.74
2022-12-15T03:08:24.681Z,15.21
2022-12-15T03:09:26.812Z,16.66
2022-12-15T03:10:29.004Z,15.01
2022-12-15T03:11:31.959Z,17.14
2022-12-15T03:12:33.986Z,14.68
2022-12-15T03:13:36.698Z,13.44
2022-12-15T03:14:38.584Z,16.05
2022-12-15T03:15:40.959Z,14.57
2022-12-15T03:16:43.008Z,15.15
2022-12-15T03:17:45.371Z,14.23
2022-12-15T03:18:47.541Z,16.41
2022-12-15T03:19:50.459Z,15.48
2022-12-15T03:20:52.758Z,14.26
2022-12-15T03:21:54.749Z,13.06
2022-12-15T03:22:56.632Z,21.04
2022-12-15T03:24:00.214Z,13.87
2022-12-15T03:25:05.132Z,13.94
2022-12-15T03:26:07.765Z,14.16
2022-12-15T03:27:10.109Z,15.65
2022-12-15T03:28:12.004Z,13.55
2022-12-15T03:29:14.032Z,15.28
2022-12-15T03:30:16.139Z,14.19
2022-12-15T03:31:18.701Z,16.47
2022-12-15T03:32:20.920Z,12.69
2022-12-15T03:33:22.962Z,14.87
2022-12-15T03:34:24.840Z,14.29
2022-12-15T03:35:26.958Z,15.05
2022-12-15T03:36:28.970Z,13.89
2022-12-15T03:37:30.929Z,15.14
2022-12-15T03:38:32.811Z,14.33
2022-12-15T03:39:34.710Z,14.63
2022-12-15T03:40:36.674Z,13.55
2022-12-15T03:41:39.342Z,16.34
2022-12-15T03:42:44.157Z,13.89
2022-12-15T03:43:46.104Z,14.08
2022-12-15T03:44:49.934Z,13.58
2022-12-15T03:45:52.013Z,15.66
2022-12-15T03:46:58.432Z,15.53
2022-12-15T03:47:58.088Z,15.58
2022-12-15T03:49:00.194Z,14.98
2022-12-15T03:50:03.021Z,14.25
2022-12-15T03:51:05.230Z,13.57
2022-12-15T03:52:07.226Z,13.23
2022-12-15T03:53:09.429Z,13.91
2022-12-15T03:54:13.128Z,14.00
2022-12-15T03:55:15.276Z,15.84
2022-12-15T03:56:17.726Z,14.23
2022-12-15T03:57:19.602Z,15.01
2022-12-15T03:58:21.488Z,13.58
2022-12-15T03:59:23.355Z,15.95
2022-12-15T04:00:26.456Z,15.00
2022-12-15T04:01:31.667Z,13.11
2022-12-15T04:02:33.937Z,14.74
2022-12-15T04:03:36.529Z,13.42
2022-12-15T04:04:38.794Z,16.02
2022-12-15T04:05:40.844Z,14.98
2022-12-15T04:06:43.199Z,14.44
2022-12-15T04:07:45.305Z,13.71
2022-12-15T04:08:47.588Z,12.61
2022-12-15T04:09:51.524Z,15.01
2022-12-15T04:10:53.755Z,13.43
2022-12-15T04:11:56.427Z,15.71
2022-12-15T04:15:19.432Z,15.75
2022-12-15T04:16:21.583Z,15.45
2022-12-15T04:17:23.842Z,17.71
2022-12-15T04:18:25.858Z,16.33
2022-12-15T04:19:27.746Z,16.18
2022-12-15T04:20:30.048Z,17.22
2022-12-15T04:21:32.075Z,18.02
2022-12-15T04:22:36.034Z,15.17
2022-12-15T04:23:37.963Z,16.11
2022-12-15T04:24:39.846Z,18.13
2022-12-15T04:25:41.726Z,16.54
2022-12-15T04:26:43.717Z,16.82
2022-12-15T04:27:46.318Z,16.13
2022-12-15T04:28:48.275Z,15.70
2022-12-15T04:29:50.142Z,13.75
2022-12-15T04:30:55.403Z,14.86
2022-12-15T04:31:57.446Z,16.97
2022-12-15T04:33:00.491Z,15.39
2022-12-15T04:34:05.954Z,15.89
2022-12-15T04:35:08.649Z,13.62
2022-12-15T04:36:13.145Z,18.07
2022-12-15T04:37:15.419Z,17.75
2022-12-15T04:38:18.173Z,17.30
2022-12-15T04:39:21.309Z,16.19
2022-12-15T04:40:23.340Z,17.07
2022-12-15T04:41:26.651Z,15.15
2022-12-15T04:42:30.553Z,16.08
2022-12-15T04:43:33.118Z,16.84
2022-12-15T04:44:36.416Z,15.56
2022-12-15T04:45:38.334Z,17.07
2022-12-15T04:46:40.512Z,18.79
2022-12-15T04:47:44.695Z,18.35
2022-12-15T04:48:46.613Z,16.16
2022-12-15T04:49:48.492Z,17.64
2022-12-15T04:50:50.588Z,19.74
2022-12-15T04:51:52.465Z,15.95
2022-12-15T04:52:54.346Z,16.41
2022-12-15T04:53:56.239Z,17.11
2022-12-15T04:54:58.135Z,17.22
2022-12-15T04:56:01.058Z,12.87
2022-12-15T04:57:03.361Z,13.91
2022-12-15T04:58:06.956Z,16.41
2022-12-15T04:59:08.902Z,15.31
2022-12-15T05:00:12.597Z,14.83
2022-12-15T05:01:14.552Z,15.38
2022-12-15T05:02:16.782Z,14.31
2022-12-15T05:03:18.843Z,15.72
2022-12-15T05:04:20.775Z,15.83
2022-12-15T05:05:22.812Z,14.87
2022-12-15T05:06:26.430Z,15.74
2022-12-15T05:07:29.655Z,14.99
2022-12-15T05:08:31.805Z,13.79
2022-12-15T05:09:33.674Z,16.08
2022-12-15T05:10:35.649Z,15.44
2022-12-15T05:11:38.524Z,14.58
2022-12-15T05:12:40.424Z,16.82
2022-12-15T05:13:42.326Z,17.79
2022-12-15T05:14:46.440Z,16.94
2022-12-15T05:15:50.359Z,15.72
2022-12-15T05:16:52.549Z,16.73
2022-12-15T05:17:55.881Z,15.17
2022-12-15T05:18:57.798Z,14.66
2022-12-15T05:19:59.684Z,15.64
2022-12-15T05:21:02.443Z,15.03
2022-12-15T05:22:05.253Z,17.23
2022-12-15T05:23:07.138Z,14.87
2022-12-15T05:24:09.025Z,16.59
2022-12-15T05:25:10.989Z,14.93
2022-12-15T05:26:13.767Z,18.32
2022-12-15T05:27:15.668Z,15.55
2022-12-15T05:28:17.536Z,17.39
2022-12-15T05:29:21.125Z,17.66
2022-12-15T05:30:23.141Z,16.99
2022-12-15T05:31:25.234Z,19.89
2022-12-15T05:32:27.182Z,18.29
2022-12-15T05:33:29.483Z,17.31
2022-12-15T05:34:33.639Z,18.31
2022-12-15T05:35:36.442Z,17.09
2022-12-15T05:36:38.849Z,17.72
2022-12-15T05:37:40.829Z,16.22
2022-12-15T05:38:42.712Z,17.14
2022-12-15T05:39:44.815Z,18.10
2022-12-15T05:40:47.309Z,16.67
2022-12-15T05:41:50.390Z,17.69
2022-12-15T05:42:52.389Z,20.54
2022-12-15T05:43:54.371Z,15.84
2022-12-15T05:44:56.240Z,17.09
2022-12-15T05:46:03.634Z,19.08
2022-12-15T05:47:06.041Z,19.02
2022-12-15T05:48:08.523Z,17.48
2022-12-15T05:49:13.451Z,17.71
2022-12-15T05:50:15.759Z,17.18
2022-12-15T05:51:17.837Z,18.81
2022-12-15T05:52:19.841Z,18.73
2022-12-15T05:53:22.856Z,18.08
2022-12-15T05:54:24.856Z,15.67
2022-12-15T05:55:26.955Z,19.59
2022-12-15T05:56:29.235Z,17.19
2022-12-15T05:57:31.124Z,17.63
2022-12-15T10:07:50.576Z,19.54
2022-12-15T10:08:59.560Z,19.52
2022-12-15T10:12:29.037Z,17.94
2022-12-15T10:13:55.623Z,17.68
2022-12-15T10:15:17.734Z,17.60
2022-12-15T10:16:32.155Z,18.63
2022-12-15T10:17:43.135Z,17.89
2022-12-15T10:20:20.848Z,19.21
2022-12-15T10:21:26.502Z,17.84
2022-12-15T10:22:31.714Z,15.46
2022-12-15T10:23:36.399Z,17.93
2022-12-15T10:25:08.678Z,19.58
2022-12-15T10:26:04.441Z,16.62
2022-12-15T10:27:27.066Z,18.28
2022-12-15T10:28:54.314Z,18.30
2022-12-15T10:30:05.909Z,18.56
2022-12-15T10:31:27.050Z,17.93
2022-12-15T10:32:42.397Z,15.71
2022-12-15T10:33:47.028Z,17.48
2022-12-15T10:34:46.749Z,18.53
2022-12-15T10:35:53.089Z,18.37
2022-12-15T10:36:56.302Z,18.09
2022-12-15T10:38:00.866Z,16.97
2022-12-15T10:39:03.007Z,17.91
2022-12-15T10:40:06.786Z,19.24
2022-12-15T10:41:20.868Z,15.43
2022-12-15T10:42:25.104Z,16.16
2022-12-15T10:43:35.112Z,18.66
2022-12-15T10:44:39.833Z,16.52
2022-12-15T10:45:41.754Z,18.20
2022-12-15T10:46:43.894Z,17.84
2022-12-15T10:47:50.368Z,17.35
2022-12-15T10:48:58.463Z,15.79
2022-12-15T10:50:24.244Z,16.78
2022-12-15T10:51:29.746Z,15.73
2022-12-15T10:52:36.474Z,16.22
2022-12-15T10:53:42.209Z,18.02
2022-12-15T10:54:48.440Z,18.26
2022-12-15T10:55:54.206Z,15.59
2022-12-15T10:56:58.856Z,16.89
2022-12-15T10:58:03.850Z,16.02
2022-12-15T10:59:30.765Z,16.08
2022-12-15T11:00:36.640Z,15.92
2022-12-15T11:01:38.962Z,17.49
2022-12-15T11:02:41.580Z,16.57
2022-12-15T11:03:44.236Z,15.69
2022-12-15T11:05:06.013Z,15.89
2022-12-15T11:06:12.047Z,15.45
2022-12-15T11:07:14.357Z,18.06
2022-12-15T11:08:16.978Z,16.77
2022-12-15T11:09:37.326Z,16.79
2022-12-15T11:10:52.057Z,15.68
2022-12-15T11:11:56.161Z,14.44
2022-12-15T11:13:15.950Z,17.34
2022-12-15T11:14:21.264Z,14.89
2022-12-15T11:15:30.025Z,15.69
2022-12-15T11:16:32.293Z,15.25
2022-12-15T11:20:04.077Z,15.91
2022-12-15T11:21:28.309Z,14.08
2022-12-15T11:22:50.577Z,14.69
2022-12-15T11:24:15.934Z,16.36
2022-12-15T11:25:36.919Z,15.67
2022-12-15T11:27:09.050Z,14.85
2022-12-15T11:28:14.885Z,13.84
2022-12-15T11:29:40.829Z,16.32
2022-12-15T11:30:46.714Z,13.33
2022-12-15T11:31:51.328Z,14.08
2022-12-15T11:32:56.544Z,13.69
2022-12-15T11:33:58.781Z,14.53
2022-12-15T11:35:00.930Z,16.42
2022-12-15T11:36:27.694Z,14.92
2022-12-15T11:37:41.386Z,15.94
2022-12-15T11:38:50.858Z,14.07
2022-12-15T11:40:15.045Z,15.42
2022-12-15T11:41:37.437Z,14.34
2022-12-15T11:42:51.635Z,15.54
2022-12-15T11:44:12.290Z,16.42
2022-12-15T11:45:44.966Z,15.22
2022-12-15T11:47:12.517Z,15.25
2022-12-15T11:48:17.948Z,15.03
2022-12-15T11:49:29.594Z,13.79
2022-12-15T11:50:38.116Z,13.71
2022-12-15T11:51:52.743Z,15.79
2022-12-15T11:53:04.410Z,15.12
2022-12-15T11:54:38.273Z,15.26
2022-12-15T11:56:05.796Z,14.88
2022-12-15T11:57:50.619Z,15.66
2022-12-15T11:59:03.457Z,14.96
2022-12-15T12:00:15.269Z,14.82
2022-12-15T12:01:58.757Z,15.81
2022-12-15T12:03:31.888Z,14.49
2022-12-15T12:04:47.777Z,17.10
2022-12-15T12:06:04.319Z,14.74
2022-12-15T12:07:44.629Z,18.27
2022-12-15T12:09:04.200Z,13.80
2022-12-15T12:10:25.456Z,14.84
2022-12-15T12:11:32.046Z,15.44
2022-12-15T12:12:47.108Z,16.02
2022-12-15T12:14:09.683Z,12.60
2022-12-15T12:15:26.553Z,15.51
2022-12-15T12:16:50.624Z,15.66
2022-12-15T12:17:55.559Z,13.89
2022-12-15T12:19:14.195Z,18.28
2022-12-15T12:20:24.649Z,16.39
2022-12-15T12:23:02.928Z,16.78
2022-12-15T12:24:39.463Z,18.42
2022-12-15T12:25:45.473Z,15.21
2022-12-15T12:27:05.249Z,14.62
2022-12-15T12:30:40.337Z,14.99
2022-12-15T12:31:50.681Z,14.85
2022-12-15T12:33:05.669Z,14.21
2022-12-15T12:34:14.129Z,15.22
2022-12-15T12:35:42.977Z,14.23
2022-12-15T12:36:49.091Z,16.57
2022-12-15T12:38:01.380Z,17.82
2022-12-15T12:39:01.957Z,15.41
2022-12-15T12:40:19.919Z,14.19
2022-12-15T12:41:45.691Z,16.82
2022-12-15T12:45:14.236Z,13.46
2022-12-15T12:46:20.603Z,13.63
2022-12-15T12:47:29.522Z,15.22
2022-12-15T12:48:35.238Z,15.85
2022-12-15T12:49:40.917Z,16.67
2022-12-15T12:50:46.616Z,15.54
2022-12-15T12:53:04.236Z,16.76
2022-12-15T12:54:39.005Z,14.88
2022-12-15T12:55:42.857Z,15.39
2022-12-15T12:56:50.533Z,15.85
2022-12-15T12:57:53.410Z,15.12
2022-12-15T12:58:55.741Z,15.75
2022-12-15T13:00:01.599Z,16.10
2022-12-15T13:01:07.571Z,17.79
2022-12-15T13:02:26.070Z,16.28
2022-12-15T13:03:29.035Z,16.75
2022-12-15T13:04:40.830Z,17.27
2022-12-15T13:06:49.272Z,16.10
2022-12-15T13:08:06.642Z,17.14
2022-12-15T13:09:23.877Z,16.23
2022-12-15T13:10:26.357Z,19.89
2022-12-15T13:11:50.043Z,17.63
2022-12-15T13:12:55.644Z,18.66
2022-12-15T13:16:21.396Z,17.34
2022-12-15T13:17:30.921Z,15.43
2022-12-15T13:18:55.721Z,15.67
2022-12-15T13:20:01.500Z,17.87
2022-12-15T13:21:07.512Z,28.15
2022-12-15T13:22:34.744Z,23.07
2022-12-15T13:23:42.265Z,18.55
2022-12-15T13:24:50.513Z,16.72
2022-12-15T13:25:59.220Z,17.37
2022-12-15T13:27:13.775Z,16.86
2022-12-15T13:28:37.868Z,16.63
2022-12-15T13:30:05.156Z,18.23
2022-12-15T13:31:21.004Z,17.13
2022-12-15T13:32:32.316Z,17.12
2022-12-15T13:33:38.078Z,15.99
2022-12-15T13:34:42.969Z,18.79
2022-12-15T13:35:45.930Z,14.54
2022-12-15T13:36:55.130Z,16.81
2022-12-15T13:37:57.473Z,18.24
2022-12-15T13:39:02.043Z,17.64
2022-12-15T13:40:24.624Z,20.53
2022-12-15T13:41:26.691Z,18.23
2022-12-15T13:42:35.008Z,20.54
2022-12-15T13:43:38.893Z,19.88
2022-12-15T13:44:48.865Z,21.88
2022-12-15T13:45:54.947Z,16.33
2022-12-15T13:47:00.916Z,18.36
2022-12-15T13:48:26.332Z,17.23
2022-12-15T13:49:38.459Z,20.04
2022-12-15T13:50:59.562Z,16.84
2022-12-15T13:52:04.995Z,17.34
2022-12-15T13:53:19.457Z,16.74
2022-12-15T18:26:33.793Z,36.19
2022-12-15T18:27:38.515Z,38.25
2022-12-15T18:28:46.062Z,39.44
2022-12-15T18:29:47.073Z,41.53
2022-12-15T18:30:53.601Z,41.24
2022-12-15T18:31:56.891Z,40.84
2022-12-15T18:32:58.999Z,41.90
2022-12-15T18:34:04.775Z,35.95
2022-12-15T18:35:14.350Z,35.72
2022-12-15T18:36:16.790Z,38.18
2022-12-15T18:37:21.406Z,40.51
2022-12-15T18:38:25.841Z,36.06
2022-12-15T18:39:28.894Z,35.35
2022-12-15T18:40:33.230Z,35.38
2022-12-15T18:41:35.130Z,40.44
2022-12-15T18:42:38.811Z,39.37
2022-12-15T18:43:43.031Z,39.19
2022-12-15T18:44:47.968Z,39.99
2022-12-15T18:45:51.167Z,40.06
2022-12-15T18:46:55.166Z,40.57
2022-12-15T18:47:57.484Z,42.61
2022-12-15T18:48:59.385Z,38.08
2022-12-15T18:50:01.250Z,42.03
2022-12-15T18:51:07.005Z,41.27
2022-12-15T18:52:23.938Z,39.98
2022-12-15T18:53:35.961Z,43.16
2022-12-15T18:54:38.027Z,40.01
2022-12-15T18:55:40.673Z,40.17
2022-12-15T18:56:43.652Z,40.94
2022-12-15T18:57:47.288Z,40.34
2022-12-15T18:58:52.184Z,38.03
2022-12-15T19:00:00.833Z,34.11
2022-12-15T19:01:06.209Z,34.94
2022-12-15T19:02:08.407Z,34.19
2022-12-15T19:03:10.614Z,37.43
2022-12-15T19:04:16.080Z,33.70
2022-12-15T19:05:20.981Z,37.82
2022-12-15T19:07:41.204Z,36.16
2022-12-15T19:08:43.354Z,35.58
2022-12-15T19:09:45.689Z,37.07
2022-12-15T19:10:53.986Z,33.20
2022-12-15T19:11:57.898Z,37.11
2022-12-15T19:13:02.270Z,33.54
2022-12-15T19:14:07.950Z,38.99
2022-12-15T19:15:21.172Z,36.84
2022-12-15T19:16:23.492Z,41.58
2022-12-15T19:17:25.592Z,40.41
2022-12-15T19:18:28.953Z,42.35
2022-12-15T19:19:30.984Z,42.10
2022-12-15T19:20:34.972Z,43.57
2022-12-15T19:21:37.546Z,49.69
2022-12-15T19:22:41.615Z,43.63
2022-12-15T19:23:46.000Z,45.95
2022-12-15T19:24:49.847Z,46.02
2022-12-15T19:25:52.874Z,45.76
2022-12-15T19:26:54.955Z,46.28
2022-12-15T19:27:59.604Z,47.03
2022-12-15T19:29:05.606Z,42.46
2022-12-15T19:30:16.221Z,41.22
2022-12-15T19:31:18.413Z,41.03
2022-12-15T19:32:21.171Z,42.62
2022-12-15T19:33:23.487Z,39.81
2022-12-15T19:34:28.263Z,45.09
2022-12-15T19:35:30.411Z,46.73
2022-12-15T19:36:36.709Z,45.13
2022-12-15T19:37:42.161Z,43.30
2022-12-15T19:38:45.584Z,46.83
2022-12-15T19:39:49.052Z,44.31
2022-12-15T19:40:51.895Z,42.46
2022-12-15T19:41:54.097Z,46.20
2022-12-15T19:42:58.503Z,50.39
2022-12-15T19:44:00.592Z,49.86
2022-12-15T19:45:15.393Z,44.06
2022-12-15T19:46:20.156Z,49.42
2022-12-15T19:47:25.642Z,48.92
2022-12-15T19:48:27.680Z,51.94
2022-12-15T19:51:44.941Z,44.73
2022-12-15T19:52:50.721Z,47.02
2022-12-15T19:53:52.737Z,43.71
2022-12-15T19:54:55.999Z,46.71
2022-12-15T19:55:59.619Z,49.08
2022-12-15T19:57:02.063Z,52.28
2022-12-15T19:58:28.186Z,52.17
2022-12-15T19:59:29.550Z,52.62
2022-12-15T20:00:31.614Z,47.28
2022-12-15T20:01:36.336Z,55.80
2022-12-15T20:02:38.544Z,50.65
2022-12-15T20:03:42.550Z,49.10
2022-12-15T20:04:46.397Z,49.84
2022-12-15T20:05:51.282Z,54.45
2022-12-15T20:06:53.763Z,56.47
2022-12-15T20:07:58.066Z,47.04
2022-12-15T20:09:00.130Z,49.18
2022-12-15T20:10:02.529Z,53.08
2022-12-15T20:11:06.541Z,51.73
2022-12-15T20:12:16.952Z,52.52
2022-12-15T20:13:20.181Z,50.56
2022-12-15T20:14:22.249Z,47.01
2022-12-15T20:15:25.856Z,45.11
2022-12-15T20:16:28.139Z,49.86
2022-12-15T20:17:30.199Z,45.35
2022-12-15T20:18:32.612Z,46.68
2022-12-15T20:19:37.359Z,42.37
2022-12-15T20:20:42.926Z,40.85
2022-12-15T20:21:45.290Z,39.39
2022-12-15T20:22:50.939Z,38.17
2022-12-15T20:23:58.559Z,41.02
2022-12-15T20:25:01.300Z,40.48
2022-12-15T20:26:07.099Z,41.16
2022-12-15T20:29:31.828Z,41.46
2022-12-15T20:30:35.808Z,36.01
2022-12-15T20:31:39.005Z,37.03
2022-12-15T20:32:44.032Z,35.39
2022-12-15T20:33:47.917Z,37.62
2022-12-15T20:34:49.983Z,39.55
2022-12-15T20:35:53.828Z,39.77
2022-12-15T20:36:57.261Z,40.82
2022-12-15T20:38:02.176Z,37.03
2022-12-15T20:39:09.248Z,35.15
2022-12-15T20:40:21.605Z,36.61
2022-12-15T20:41:26.551Z,34.29
2022-12-15T20:42:30.740Z,41.68
2022-12-15T20:43:34.806Z,40.61
2022-12-15T20:44:41.822Z,40.46
2022-12-15T20:45:45.600Z,42.04
2022-12-15T20:46:48.939Z,43.11
2022-12-15T20:47:56.833Z,44.66
2022-12-15T20:49:00.228Z,43.51
2022-12-15T20:50:04.898Z,43.53
2022-12-15T20:51:10.053Z,43.89
2022-12-15T20:52:16.026Z,41.82
2022-12-15T20:53:21.447Z,39.77
2022-12-15T20:54:23.401Z,43.74
2022-12-15T20:55:25.605Z,39.60
2022-12-15T20:56:28.419Z,39.63
2022-12-15T20:57:33.843Z,42.10
2022-12-15T20:58:39.788Z,37.11
2022-12-15T20:59:41.708Z,41.48
2022-12-15T21:00:45.831Z,44.89
2022-12-15T21:01:49.144Z,39.96
2022-12-15T21:02:55.483Z,40.79
2022-12-15T21:03:59.852Z,37.62
2022-12-15T21:05:02.133Z,42.03
2022-12-15T21:06:05.369Z,41.56
2022-12-15T21:07:11.130Z,38.65
2022-12-15T21:08:21.918Z,39.93
2022-12-15T21:09:24.826Z,43.21
2022-12-15T21:10:27.126Z,39.49
2022-12-15T21:11:32.016Z,38.05
2022-12-15T21:12:34.237Z,44.04
2022-12-15T21:13:38.271Z,39.16
2022-12-15T21:14:40.945Z,42.12
2022-12-15T21:15:42.865Z,39.99
2022-12-15T21:16:45.631Z,43.94
2022-12-15T21:18:03.845Z,45.41
2022-12-15T21:20:01.998Z,42.96
2022-12-15T21:21:08.000Z,37.51
2022-12-15T21:22:21.679Z,39.82
2022-12-15T21:23:27.014Z,44.74
2022-12-15T21:24:32.518Z,42.84
2022-12-15T21:25:39.812Z,42.01
2022-12-15T21:26:42.658Z,43.68
2022-12-15T21:27:44.933Z,41.04
2022-12-15T21:28:50.469Z,40.31
2022-12-15T21:29:57.841Z,42.86
2022-12-15T21:31:00.804Z,46.31
2022-12-15T21:32:03.078Z,42.29
2022-12-15T21:33:05.578Z,40.38
2022-12-15T21:34:08.859Z,41.99
2022-12-15T21:35:13.343Z,40.31
2022-12-15T21:36:22.896Z,44.72
2022-12-15T21:37:30.841Z,39.39
2022-12-15T21:38:37.164Z,44.27
2022-12-15T21:39:39.654Z,42.76
2022-12-15T21:40:42.336Z,40.92
2022-12-15T21:41:44.548Z,37.01
2022-12-15T21:42:49.025Z,42.73
2022-12-15T21:43:51.072Z,39.19
2022-12-15T21:44:53.983Z,43.06
2022-12-15T21:45:58.071Z,43.67
2022-12-15T21:47:00.414Z,41.65
2022-12-15T21:48:02.703Z,36.44
2022-12-15T21:49:04.864Z,44.28
2022-12-15T21:50:08.029Z,41.77
2022-12-15T21:53:29.435Z,41.52
2022-12-15T21:54:34.118Z,41.10
2022-12-15T21:55:36.207Z,38.92
2022-12-15T21:56:39.088Z,37.87
2022-12-15T21:57:41.140Z,41.63
2022-12-15T21:58:46.060Z,39.42
2022-12-15T21:59:47.966Z,39.40
2022-12-15T22:00:50.472Z,38.83
2022-12-15T22:01:52.581Z,36.51
2022-12-15T22:02:54.895Z,39.07
2022-12-15T22:04:00.046Z,37.26
2022-12-15T22:05:03.190Z,38.91
2022-12-15T22:06:06.365Z,36.77
2022-12-15T22:07:12.027Z,38.06
2022-12-15T22:08:19.956Z,39.09
2022-12-15T22:09:22.984Z,38.90
2022-12-15T22:10:25.707Z,37.84
2022-12-15T22:11:30.542Z,35.90
2022-12-15T22:12:33.368Z,37.84
2022-12-15T22:13:35.355Z,34.88
2022-12-15T22:14:37.494Z,39.35
2022-12-15T22:15:39.649Z,39.87
2022-12-15T22:16:42.098Z,38.91
2022-12-15T22:17:44.843Z,44.76
2022-12-15T22:18:55.257Z,40.86
2022-12-15T22:19:58.073Z,40.71
2022-12-15T22:21:00.092Z,42.57
2022-12-15T22:22:01.976Z,42.59
2022-12-15T22:23:04.387Z,37.14
2022-12-15T22:24:10.236Z,41.56
2022-12-15T22:25:17.987Z,42.52
2022-12-15T22:26:30.938Z,39.98
2022-12-15T22:27:33.678Z,37.63
2022-12-15T22:28:36.778Z,39.25
2022-12-15T22:29:39.191Z,43.13
2022-12-15T22:30:41.362Z,43.57
2022-12-15T22:31:44.121Z,36.93
2022-12-15T22:32:46.360Z,43.52
2022-12-15T22:33:49.052Z,41.47
2022-12-15T22:34:50.939Z,40.03
2022-12-15T22:35:55.896Z,43.38
2022-12-15T22:36:58.101Z,39.68
2022-12-15T22:38:00.031Z,38.51
2022-12-15T22:39:07.510Z,42.29
2022-12-15T22:40:07.463Z,46.29
2022-12-15T22:41:21.489Z,41.54
2022-12-15T22:42:23.531Z,41.39
2022-12-15T22:43:38.214Z,37.74
2022-12-15T22:44:40.127Z,39.46
2022-12-15T22:45:42.921Z,42.39
2022-12-15T22:46:47.624Z,40.09
2022-12-15T22:47:52.786Z,40.75
2022-12-15T22:48:55.199Z,38.30
2022-12-15T22:49:57.085Z,40.81
2022-12-15T22:51:02.696Z,36.33
2022-12-15T22:52:20.066Z,37.73
2022-12-15T22:53:24.209Z,39.34
2022-12-15T22:54:29.433Z,43.99
2022-12-15T22:55:32.858Z,41.00
2022-12-15T22:56:38.872Z,44.14
2022-12-15T22:58:57.453Z,42.93
2022-12-15T23:00:03.235Z,43.64
2022-12-15T23:01:05.930Z,50.24
2022-12-15T23:02:10.225Z,48.09
2022-12-15T23:03:13.202Z,49.56
2022-12-15T23:04:15.574Z,51.69
2022-12-15T23:05:19.701Z,56.45
2022-12-15T23:06:22.659Z,50.80
2022-12-15T23:07:25.102Z,56.94
2022-12-15T23:08:28.909Z,52.33
2022-12-15T23:09:32.510Z,50.09
2022-12-15T23:10:34.683Z,47.43
2022-12-15T23:11:36.550Z,52.82
2022-12-15T23:12:38.729Z,50.03
2022-12-15T23:13:40.915Z,48.63
2022-12-15T23:14:42.803Z,47.27
2022-12-15T23:15:44.906Z,46.74
2022-12-15T23:16:48.087Z,44.98
2022-12-15T23:17:50.077Z,45.76
2022-12-15T23:18:55.748Z,53.35
2022-12-15T23:19:57.684Z,52.96
2022-12-15T23:20:59.990Z,52.63
2022-12-15T23:22:01.895Z,48.88
2022-12-15T23:23:03.943Z,47.82
2022-12-15T23:24:07.832Z,46.14
2022-12-15T23:25:10.173Z,48.20
2022-12-15T23:26:13.732Z,43.61
2022-12-15T23:27:15.623Z,49.86
2022-12-15T23:28:17.803Z,42.00
2022-12-15T23:29:19.777Z,45.61
2022-12-15T23:30:21.771Z,50.13
2022-12-15T23:31:24.021Z,80.91
2022-12-15T23:32:25.935Z,59.89
2022-12-15T23:33:31.637Z,57.78
2022-12-15T23:34:34.068Z,51.06
2022-12-15T23:35:39.509Z,60.36
2022-12-15T23:36:41.553Z,45.00
2022-12-15T23:37:43.434Z,42.16
2022-12-15T23:38:45.328Z,45.07
2022-12-15T23:39:47.197Z,43.16
2022-12-15T23:40:53.010Z,43.91
2022-12-15T23:41:55.133Z,48.11
2022-12-15T23:42:57.006Z,54.57
2022-12-15T23:43:59.641Z,44.55
2022-12-15T23:45:01.767Z,43.51
2022-12-15T23:46:05.756Z,44.88
2022-12-15T23:47:07.898Z,58.01
2022-12-15T23:48:12.103Z,51.62
2022-12-15T23:49:13.999Z,207.71
2022-12-15T23:50:16.971Z,162.64
2022-12-15T23:51:20.291Z,198.03
2022-12-15T23:52:22.183Z,129.13
2022-12-15T23:53:24.070Z,151.75
2022-12-15T23:54:25.989Z,269.21
2022-12-15T23:55:28.737Z,254.39
2022-12-15T23:56:30.712Z,147.63
2022-12-15T23:57:33.176Z,204.23
2022-12-15T23:58:37.390Z,173.51
2022-12-15T23:59:39.545Z,395.75
